Timeline UpdatesTrip UpdatesNews PostsPvt PostsTravel TipsAdmin PostsConv PostsFollowed PostsChat RequestsBlog PostsPNR Posts

Disclaimer
Search
 
 
Tue Jul 29, 2014 03:59:53 ISTHomeTrainsΣChainsAtlasPNRForumGalleryNewsFAQTripsMembersLoginFeedback
No Recent News for this Train
Other Trains in the News **new
Latest...
.
Mon Aug 26, 2013 (09:43AM)
⇐ Return Journey: Train# 11027

11028/Chennai-Mumbai CST Mail

Jul 02 2013 (6:40PM)
Change Departure Station:
Change Arrival Station:
Post a Train Travel TipPost a Train Travel Tip **new
Post a Comment/Question/Picture/VideoPost a Comment/Question/Picture/Video
Pantry/Catering
✓ Pantry Car Avbl
✓ Catering Avbl
RSA - Rake Sharing
11041 Mumbai Chennai Express
Rake/Coach Composition
Loco >SLR >UR >RMS>A1 >B1 >S10 To > S6 >PC >S5 To >S1>UR >LDS >S11 (S11 From Solapur To Daund Junction )
Loco
MAS-GTL=> LGD WAP-4 GTL-PUNE=> GY WDM-3A PUNE-CSTM=> KYN WCAM #2P/3
News    PNR    Forum    Time-Table    Availability    Fare Chart    Map    Arr/Dep History    Trips    Gallery    ΣChains    X/O    Timeline    
Travel Time: 0h 39m    0 halts    Distance: 42 km    Avg Speed: 64 km/hr
Type: Mail/Express
Zone: CR/Central
Departs @ 22:50 (Avg 3m late)
Platform# 1
SMTWTFS
Chennai Central/MAS 
Arrives @ 23:29 (Avg 15m late)
Platform# ???
SMTWTFS
Tiruvallur/TRL 

0 halts. 21 intermediate Stations between Chennai Central and Tiruvallur

Show ALL intermediate Stations  

#CodeStation NameX/OArrivesAvgDepartsAvgHaltPFDay#KmSpeedElevZoneAddress
1MAS»Chennai Central (12)»  -22:50+3110.0649mSRChennai 600003, Tamil Nadu
2TRL•Tiruvallur (6)•  23:29+1523:30+161m--141.75250mSRTiruvallur, Tamil Nadu
3AJJArakkonam Junction (8)  00:01+1400:05+124m--268.74591mSRArakkonam, Tamil Nadu
4TRTTiruttani (3)  00:24+1300:25+141m3282.96784mSRTiruttani, Tamil Nadu
5PUTPuttur (3)  00:54+1400:55+151m12115.422149mSRPuttur, Andhra Pradesh
6RURenigunta Junction (5)X  02:00-202:20+1020m12138.863113mSCRChittoor District, Andhra Pradesh
7KOUKoduru (2)  02:59+903:00+111m22179.769215mSCRKadapa (YSR District), Andhra Pradesh
8RJPRazampeta (2)  03:29+903:30+111m22213.245144mSCRKadapa (YSR District), Andhra Pradesh
9NRENandalurX  03:44+1303:45+141m--2223.850143mSCRRayalaseema Region, Andhra Pradesh
10HXKadapa (3)X  04:34+604:35+91m32264.375146mSCRCuddapah, Andhra Pradesh
11KKMKamalapuram (2)X  04:54+1204:55+121m--2288.066141mSCRKadapa (YSR District), Andhra Pradesh
12YAYerraguntla (2)  05:09+1805:10+191m--2303.470171mSCRKadapa / Cuddapah (YSR District), Andhra Pradesh
13MOOMuddanuru (3)  05:24+2605:25+271m--2319.636194mSCRKadapa (YSR District), Andhra Pradesh
14KDPKondapuram (2)X  06:04+1206:05+231m--2343.265214mSCRKadapa (YSR District), Andhra Pradesh
15TUTadipatri (3)06:31+2506:32+261m12371.367243mSCRAnantapuram Dist, Andhra Pradesh
16RLORayala Cheruvu (2)  06:54+3006:55+301m12395.822292mSCRRayalacheruvu, Andhra Pradesh
17GYGooty Junction (2)  07:59+808:00+101m22419.457370mSCRNH 7 Anantapur District, Andhra Pradesh
18GTLGuntakal Junction (6)08:30+1908:50+2720m52448.052453mSCRGuntakal. Tel: 08552-227131/32, Andhra Pradesh
19NRRNagarur (2)  09:39+2309:40+231m22490.530427mSCRKurnool, Andhra Pradesh
20ADAdoni (4)  09:59+1610:00+181m42499.962420mSCRAdoni Tel: 08512-252368, Andhra Pradesh
21KGLKupgal (2)  10:14+2210:15+231m12514.391417mSCRKurnool Dist., Andhra Pradesh
22KOKosigi (2)  10:24+2810:25+301m22528.023379mSCRKurnool Dist., Andhra Pradesh
23MALMMantralayam Road (3)X  10:59+1511:00+281m12541.248335mSCRKurnool Tel: 08512-259830, Andhra Pradesh
24MTUMatmari  11:14+2811:15+281m12552.427371mSCRRaichur, Karnataka
25RCRaichur Junction (3)X  11:54+1211:55+171m22569.663406mSCRRaichur, Karnataka
26KSNKrishna (2)  12:19+2112:20+231m22594.871352mSCRDist Mahabubnagar, Telangana
27SADPSaidapur (3)  12:37+3012:38+321m22615.077377mSCRYadgir Dist., Karnataka
28YGYadgir (3)X  12:56+3512:57+441m22638.245369mSCRYadgir, Karnataka
29NWNalwar (2)  13:31+3413:32+481m12663.610406mSCRGulbarga, Karnataka
30WADIWadi Junction (4)  14:55+015:00+35m32677.250431mCRWadi, Karnataka
31SDBShahabad (3)  15:12+515:13+61m12687.352403mCRShahabad, Karnataka
32GRGulbarga (4)  15:44+315:45+71m12714.061458mCRGulbarga 585101, Karnataka
33GURGanagapur Road16:11+1016:12+131m12740.543445mCRDist Gulbarga, Karnataka
34DUDDudhani (2)  16:44+916:45+151m12763.558457mCRSolapur, Maharashtra
35AKORAkalkot Road (2)  17:14+2517:15+281m12791.447456mCRDist Solapur, Maharashtra
36HGHotgi Junction (3)  17:41+2417:42+261m22811.732473mCRHotgi 413215, Maharashtra
37SURSolapur (5)18:10+1818:20+2410m32826.769461mCRSolapur 413001, Maharashtra
38MOMohol (2)  18:49+2618:50+281m12859.972458mCRSolapur, Maharashtra
39MAMadha (2)  19:15+2719:16+291m12889.848481mCRSolapur, Maharashtra
40KWVKurduvadi Junction (4)  19:36+2719:37+291m22905.660516mCRKurduvadi Dist-Solapur, Maharashtra
41KEMKem (2)X  19:55+3219:56+381m12923.754548mCRKem, Maharashtra
42JEURJeur (1)XO  20:14+3720:15+391m12939.956526mCRJeur, Maharashtra
43BGVNBhigwan (2)X  21:04+2821:05+291m12985.937509mCRDaund, Maharashtra
44DDDaund Junction (7)21:50+1021:55+195m621013.650521mCRNew Daund Dist. Pune 413801, Maharashtra
45PUNEPune Junction (6)X23:25+523:40+1215m421089.240556mCRPune 411001, Maharashtra
46KKKhadki (3)X  23:49+1823:50+181m221095.264562mCRPune 411003, Maharashtra
47LNLLonavala (3)X  00:44+900:45+121m231152.835623mCRLonavala 410401, Maharashtra
48KJTKarjat Junction (4)X  01:34+1201:35+141m231181.45257mCRKarjat, Maharashtra
49KYNKalyan Junction (8)  02:29+902:30+101m731228.38710mCRKalyan 421301, Maharashtra
50TNAThane (10)  02:44+2102:45+231m631248.55010mCRThane, Maharashtra
51DRMumbai Dadar Central (8)  03:14+1703:15+211m631272.8177mCRMumbai 400014, Maharashtra
52CSTMMumbai CST (18)  03:45+6-1631281.4-10mCRMumbai 400001, Maharashtra
Scroll to Top
Scroll to Bottom